Greenwich, New York
Current Conditions -  °F | °C
As of 2:53 AM on Thursday 23 Oct 2014 (Local Time) from KGFL Reporting Station
Overcast Overcast  
Wind Chill: 52°   Ceiling: 2800
Heat Index: 52°   Visibility: 10mi
Dew Point: 41°   Wind: 13mph
Humidity: 66%   Direction: 20°NNE
Pressure: 29.92"   Gusts: NA
Location:  43.09°N, 73.5°W
Report Text: KGFL 230653Z AUTO 02011KT 10SM OVC028 11/05 A2992 RMK AO2 SLP133 T01110050
Loading
Personal Weather Stations






























Interactive Weather Map
Tropical Storm Tracking
New forecast layout! Learn more

10-Day Weather Forecast

Advertisements
Track Severe Weather on mobile